sensor_id;sensor_type;location;lat;lon;timestamp;temperature;humidity
50606;DHT22;36557;53.572;10.170;2023-03-26T00:02:10;7.30;99.90
50606;DHT22;36557;53.572;10.170;2023-03-26T00:04:36;7.30;99.90
50606;DHT22;36557;53.572;10.170;2023-03-26T00:07:02;7.30;99.90
50606;DHT22;36557;53.572;10.170;2023-03-26T00:09:29;7.30;99.90
50606;DHT22;36557;53.572;10.170;2023-03-26T00:11:55;7.30;99.90
50606;DHT22;36557;53.572;10.170;2023-03-26T00:14:21;7.30;99.90
50606;DHT22;36557;53.572;10.170;2023-03-26T00:16:47;7.30;99.90
50606;DHT22;36557;53.572;10.170;2023-03-26T00:19:14;7.30;99.90
50606;DHT22;36557;53.572;10.170;2023-03-26T00:21:40;7.30;99.90
50606;DHT22;36557;53.572;10.170;2023-03-26T00:24:11;7.30;99.90
50606;DHT22;36557;53.572;10.170;2023-03-26T00:26:40;7.30;99.90
50606;DHT22;36557;53.572;10.170;2023-03-26T00:29:07;7.20;99.90
50606;DHT22;36557;53.572;10.170;2023-03-26T00:31:35;7.30;99.90
50606;DHT22;36557;53.572;10.170;2023-03-26T00:34:04;7.30;99.90
50606;DHT22;36557;53.572;10.170;2023-03-26T00:36:30;7.20;99.90
50606;DHT22;36557;53.572;10.170;2023-03-26T00:38:56;7.20;99.90
50606;DHT22;36557;53.572;10.170;2023-03-26T00:41:24;7.20;99.90
50606;DHT22;36557;53.572;10.170;2023-03-26T00:43:53;7.20;99.90
50606;DHT22;36557;53.572;10.170;2023-03-26T00:46:21;7.20;99.90
50606;DHT22;36557;53.572;10.170;2023-03-26T00:48:46;7.20;99.90
50606;DHT22;36557;53.572;10.170;2023-03-26T00:51:14;7.20;99.90
50606;DHT22;36557;53.572;10.170;2023-03-26T00:53:41;7.20;99.90
50606;DHT22;36557;53.572;10.170;2023-03-26T00:56:08;7.10;99.90
50606;DHT22;36557;53.572;10.170;2023-03-26T00:58:34;7.20;99.90
50606;DHT22;36557;53.572;10.170;2023-03-26T01:01:10;7.20;99.90
50606;DHT22;36557;53.572;10.170;2023-03-26T01:03:42;7.20;99.90
50606;DHT22;36557;53.572;10.170;2023-03-26T01:06:28;7.10;99.90
50606;DHT22;36557;53.572;10.170;2023-03-26T01:09:01;7.10;99.90
50606;DHT22;36557;53.572;10.170;2023-03-26T01:11:33;7.20;99.90
50606;DHT22;36557;53.572;10.170;2023-03-26T01:14:09;7.10;99.90
50606;DHT22;36557;53.572;10.170;2023-03-26T01:16:44;7.20;99.90
50606;DHT22;36557;53.572;10.170;2023-03-26T01:19:21;7.10;99.90
50606;DHT22;36557;53.572;10.170;2023-03-26T01:21:49;7.10;99.90
50606;DHT22;36557;53.572;10.170;2023-03-26T01:24:15;7.10;99.90
50606;DHT22;36557;53.572;10.170;2023-03-26T01:32:15;7.10;99.90
50606;DHT22;36557;53.572;10.170;2023-03-26T01:40:33;6.80;99.90
50606;DHT22;36557;53.572;10.170;2023-03-26T01:45:55;6.70;99.90
50606;DHT22;36557;53.572;10.170;2023-03-26T01:48:37;6.60;99.90
50606;DHT22;36557;53.572;10.170;2023-03-26T01:51:05;6.60;99.90
50606;DHT22;36557;53.572;10.170;2023-03-26T01:53:35;6.60;99.90
50606;DHT22;36557;53.572;10.170;2023-03-26T01:59:05;6.50;99.90
50606;DHT22;36557;53.572;10.170;2023-03-26T02:07:26;6.40;99.90
50606;DHT22;36557;53.572;10.170;2023-03-26T02:10:02;6.40;99.90
50606;DHT22;36557;53.572;10.170;2023-03-26T02:12:31;6.30;99.90
50606;DHT22;36557;53.572;10.170;2023-03-26T02:15:01;6.40;99.90
50606;DHT22;36557;53.572;10.170;2023-03-26T02:17:27;6.40;99.90
50606;DHT22;36557;53.572;10.170;2023-03-26T02:19:55;6.40;99.90
50606;DHT22;36557;53.572;10.170;2023-03-26T02:22:21;6.30;99.90
50606;DHT22;36557;53.572;10.170;2023-03-26T02:24:47;6.30;99.90
50606;DHT22;36557;53.572;10.170;2023-03-26T02:27:13;6.30;99.90
50606;DHT22;36557;53.572;10.170;2023-03-26T02:29:42;6.40;99.90
50606;DHT22;36557;53.572;10.170;2023-03-26T02:32:09;6.40;99.90
50606;DHT22;36557;53.572;10.170;2023-03-26T02:34:39;6.40;99.90
50606;DHT22;36557;53.572;10.170;2023-03-26T02:37:05;6.40;99.90
50606;DHT22;36557;53.572;10.170;2023-03-26T02:39:32;6.40;99.90
50606;DHT22;36557;53.572;10.170;2023-03-26T02:41:57;6.40;99.90
50606;DHT22;36557;53.572;10.170;2023-03-26T02:44:23;6.40;99.90
50606;DHT22;36557;53.572;10.170;2023-03-26T02:46:49;6.40;99.90
50606;DHT22;36557;53.572;10.170;2023-03-26T02:49:16;6.40;99.90
50606;DHT22;36557;53.572;10.170;2023-03-26T02:51:41;6.40;99.90
50606;DHT22;36557;53.572;10.170;2023-03-26T02:54:07;6.40;99.90
50606;DHT22;36557;53.572;10.170;2023-03-26T02:56:33;6.40;99.90
50606;DHT22;36557;53.572;10.170;2023-03-26T02:58:58;6.40;99.90
50606;DHT22;36557;53.572;10.170;2023-03-26T03:01:24;6.40;99.90
50606;DHT22;36557;53.572;10.170;2023-03-26T03:03:50;6.40;99.90
50606;DHT22;36557;53.572;10.170;2023-03-26T03:06:16;6.30;99.90
50606;DHT22;36557;53.572;10.170;2023-03-26T03:08:44;6.30;99.90
50606;DHT22;36557;53.572;10.170;2023-03-26T03:11:18;6.20;99.90
50606;DHT22;36557;53.572;10.170;2023-03-26T03:13:46;6.20;99.90
50606;DHT22;36557;53.572;10.170;2023-03-26T03:16:12;6.20;99.90
50606;DHT22;36557;53.572;10.170;2023-03-26T03:18:38;6.10;99.90
50606;DHT22;36557;53.572;10.170;2023-03-26T03:21:04;6.10;99.90
50606;DHT22;36557;53.572;10.170;2023-03-26T03:23:31;6.10;99.90
50606;DHT22;36557;53.572;10.170;2023-03-26T03:25:57;6.00;99.90
50606;DHT22;36557;53.572;10.170;2023-03-26T03:28:24;6.10;99.90
50606;DHT22;36557;53.572;10.170;2023-03-26T03:30:50;6.10;99.90
50606;DHT22;36557;53.572;10.170;2023-03-26T03:33:22;6.00;99.90
50606;DHT22;36557;53.572;10.170;2023-03-26T03:35:49;6.00;99.90
50606;DHT22;36557;53.572;10.170;2023-03-26T03:38:16;6.00;99.90
50606;DHT22;36557;53.572;10.170;2023-03-26T03:40:42;6.00;99.90
50606;DHT22;36557;53.572;10.170;2023-03-26T03:43:08;6.00;99.90
50606;DHT22;36557;53.572;10.170;2023-03-26T03:45:34;5.90;99.90
50606;DHT22;36557;53.572;10.170;2023-03-26T03:48:00;5.90;99.90
50606;DHT22;36557;53.572;10.170;2023-03-26T03:50:25;6.00;99.90
50606;DHT22;36557;53.572;10.170;2023-03-26T03:52:51;5.90;99.90
50606;DHT22;36557;53.572;10.170;2023-03-26T03:55:17;5.90;99.90
50606;DHT22;36557;53.572;10.170;2023-03-26T03:57:44;5.90;99.90
50606;DHT22;36557;53.572;10.170;2023-03-26T04:00:11;5.90;99.90
50606;DHT22;36557;53.572;10.170;2023-03-26T04:02:37;5.90;99.90
50606;DHT22;36557;53.572;10.170;2023-03-26T04:05:04;5.90;99.90
50606;DHT22;36557;53.572;10.170;2023-03-26T04:07:31;5.90;99.90
50606;DHT22;36557;53.572;10.170;2023-03-26T04:09:58;5.80;99.90
50606;DHT22;36557;53.572;10.170;2023-03-26T04:12:28;5.80;99.90
50606;DHT22;36557;53.572;10.170;2023-03-26T04:14:55;5.80;99.90
50606;DHT22;36557;53.572;10.170;2023-03-26T04:17:21;5.80;99.90
50606;DHT22;36557;53.572;10.170;2023-03-26T04:19:48;5.80;99.90
50606;DHT22;36557;53.572;10.170;2023-03-26T04:22:15;5.80;99.90
50606;DHT22;36557;53.572;10.170;2023-03-26T04:24:43;5.80;99.90
50606;DHT22;36557;53.572;10.170;2023-03-26T04:27:12;5.80;99.90
50606;DHT22;36557;53.572;10.170;2023-03-26T04:29:43;5.80;99.90
50606;DHT22;36557;53.572;10.170;2023-03-26T04:32:15;5.70;99.90
50606;DHT22;36557;53.572;10.170;2023-03-26T04:34:44;5.70;99.90
50606;DHT22;36557;53.572;10.170;2023-03-26T04:37:27;5.70;99.90
50606;DHT22;36557;53.572;10.170;2023-03-26T04:39:59;5.70;99.90
50606;DHT22;36557;53.572;10.170;2023-03-26T04:42:26;5.60;99.90
50606;DHT22;36557;53.572;10.170;2023-03-26T04:44:53;5.50;99.90
50606;DHT22;36557;53.572;10.170;2023-03-26T04:47:18;5.50;99.90
50606;DHT22;36557;53.572;10.170;2023-03-26T04:49:45;5.40;99.90
50606;DHT22;36557;53.572;10.170;2023-03-26T04:52:12;5.40;99.90
50606;DHT22;36557;53.572;10.170;2023-03-26T04:54:38;5.50;99.90
50606;DHT22;36557;53.572;10.170;2023-03-26T04:57:15;5.50;99.90
50606;DHT22;36557;53.572;10.170;2023-03-26T04:59:41;5.50;99.90
50606;DHT22;36557;53.572;10.170;2023-03-26T05:02:09;5.50;99.90
50606;DHT22;36557;53.572;10.170;2023-03-26T05:04:37;5.50;99.90
50606;DHT22;36557;53.572;10.170;2023-03-26T05:07:10;5.50;99.90
50606;DHT22;36557;53.572;10.170;2023-03-26T05:09:36;5.40;99.90
50606;DHT22;36557;53.572;10.170;2023-03-26T05:12:02;5.40;99.90
50606;DHT22;36557;53.572;10.170;2023-03-26T05:14:28;5.40;99.90
50606;DHT22;36557;53.572;10.170;2023-03-26T05:16:54;5.30;99.90
50606;DHT22;36557;53.572;10.170;2023-03-26T05:19:19;5.20;99.90
50606;DHT22;36557;53.572;10.170;2023-03-26T05:21:46;5.20;99.90
50606;DHT22;36557;53.572;10.170;2023-03-26T05:24:11;5.20;99.90
50606;DHT22;36557;53.572;10.170;2023-03-26T05:26:37;5.10;99.90
50606;DHT22;36557;53.572;10.170;2023-03-26T05:29:03;5.10;99.90
50606;DHT22;36557;53.572;10.170;2023-03-26T05:31:29;5.20;99.90
50606;DHT22;36557;53.572;10.170;2023-03-26T05:33:56;5.20;99.90
50606;DHT22;36557;53.572;10.170;2023-03-26T05:36:22;5.20;99.90
50606;DHT22;36557;53.572;10.170;2023-03-26T05:38:48;5.30;99.90
50606;DHT22;36557;53.572;10.170;2023-03-26T05:41:15;5.20;99.90
50606;DHT22;36557;53.572;10.170;2023-03-26T05:43:41;5.30;99.90
50606;DHT22;36557;53.572;10.170;2023-03-26T05:46:09;5.30;99.90
50606;DHT22;36557;53.572;10.170;2023-03-26T05:48:35;5.30;99.90
50606;DHT22;36557;53.572;10.170;2023-03-26T05:51:03;5.40;99.90
50606;DHT22;36557;53.572;10.170;2023-03-26T05:53:29;5.30;99.90
50606;DHT22;36557;53.572;10.170;2023-03-26T05:55:55;5.30;99.90
50606;DHT22;36557;53.572;10.170;2023-03-26T05:58:25;5.30;99.90
50606;DHT22;36557;53.572;10.170;2023-03-26T06:01:02;5.30;99.90
50606;DHT22;36557;53.572;10.170;2023-03-26T06:03:34;5.30;99.90
50606;DHT22;36557;53.572;10.170;2023-03-26T06:06:00;5.30;99.90
50606;DHT22;36557;53.572;10.170;2023-03-26T06:08:28;5.30;99.90
50606;DHT22;36557;53.572;10.170;2023-03-26T06:11:02;5.30;99.90
50606;DHT22;36557;53.572;10.170;2023-03-26T06:13:28;5.40;99.90
50606;DHT22;36557;53.572;10.170;2023-03-26T06:15:55;5.40;99.90
50606;DHT22;36557;53.572;10.170;2023-03-26T06:18:23;5.40;99.90
50606;DHT22;36557;53.572;10.170;2023-03-26T06:20:50;5.40;99.90
50606;DHT22;36557;53.572;10.170;2023-03-26T06:23:16;5.50;99.90
50606;DHT22;36557;53.572;10.170;2023-03-26T06:25:43;5.50;99.90
50606;DHT22;36557;53.572;10.170;2023-03-26T06:28:10;5.50;99.90
50606;DHT22;36557;53.572;10.170;2023-03-26T06:30:36;5.50;99.90
50606;DHT22;36557;53.572;10.170;2023-03-26T06:33:02;5.60;99.90
50606;DHT22;36557;53.572;10.170;2023-03-26T06:35:29;5.60;99.90
50606;DHT22;36557;53.572;10.170;2023-03-26T06:37:55;5.60;99.90
50606;DHT22;36557;53.572;10.170;2023-03-26T06:40:21;5.70;99.90
50606;DHT22;36557;53.572;10.170;2023-03-26T06:42:47;5.70;99.90
50606;DHT22;36557;53.572;10.170;2023-03-26T06:45:13;5.80;99.90
50606;DHT22;36557;53.572;10.170;2023-03-26T06:47:39;5.80;99.90
50606;DHT22;36557;53.572;10.170;2023-03-26T06:50:05;5.80;99.90
50606;DHT22;36557;53.572;10.170;2023-03-26T06:52:31;5.80;99.90
50606;DHT22;36557;53.572;10.170;2023-03-26T06:54:57;6.00;99.90
50606;DHT22;36557;53.572;10.170;2023-03-26T06:57:23;6.00;99.90
50606;DHT22;36557;53.572;10.170;2023-03-26T06:59:48;6.00;99.90
50606;DHT22;36557;53.572;10.170;2023-03-26T07:02:14;6.10;99.90
50606;DHT22;36557;53.572;10.170;2023-03-26T07:04:40;6.00;99.90
50606;DHT22;36557;53.572;10.170;2023-03-26T07:07:06;6.00;99.90
50606;DHT22;36557;53.572;10.170;2023-03-26T07:09:32;6.00;99.90
50606;DHT22;36557;53.572;10.170;2023-03-26T07:11:58;6.10;99.90
50606;DHT22;36557;53.572;10.170;2023-03-26T07:14:24;6.20;99.90
50606;DHT22;36557;53.572;10.170;2023-03-26T07:16:52;6.20;99.90
50606;DHT22;36557;53.572;10.170;2023-03-26T07:19:18;6.30;99.90
50606;DHT22;36557;53.572;10.170;2023-03-26T07:21:44;6.10;99.90
50606;DHT22;36557;53.572;10.170;2023-03-26T07:32:12;6.20;99.90
50606;DHT22;36557;53.572;10.170;2023-03-26T07:34:57;6.10;99.90
50606;DHT22;36557;53.572;10.170;2023-03-26T07:37:34;6.30;99.90
50606;DHT22;36557;53.572;10.170;2023-03-26T07:40:13;6.10;99.90
50606;DHT22;36557;53.572;10.170;2023-03-26T07:42:53;6.00;99.90
50606;DHT22;36557;53.572;10.170;2023-03-26T07:45:39;6.00;99.90
50606;DHT22;36557;53.572;10.170;2023-03-26T07:48:20;6.00;99.90
50606;DHT22;36557;53.572;10.170;2023-03-26T07:50:50;6.10;99.90
50606;DHT22;36557;53.572;10.170;2023-03-26T07:53:16;6.20;99.90
50606;DHT22;36557;53.572;10.170;2023-03-26T07:56:08;6.10;99.90
50606;DHT22;36557;53.572;10.170;2023-03-26T07:58:50;6.10;99.90
50606;DHT22;36557;53.572;10.170;2023-03-26T08:07:32;6.20;99.90
50606;DHT22;36557;53.572;10.170;2023-03-26T08:21:12;6.30;99.90
50606;DHT22;36557;53.572;10.170;2023-03-26T08:23:54;6.40;99.90
50606;DHT22;36557;53.572;10.170;2023-03-26T08:26:44;6.40;99.90
50606;DHT22;36557;53.572;10.170;2023-03-26T08:32:03;7.20;99.90
50606;DHT22;36557;53.572;10.170;2023-03-26T08:34:28;7.30;99.90
50606;DHT22;36557;53.572;10.170;2023-03-26T08:36:54;7.30;99.90
50606;DHT22;36557;53.572;10.170;2023-03-26T08:39:20;7.10;99.90
50606;DHT22;36557;53.572;10.170;2023-03-26T08:47:25;7.90;99.90
50606;DHT22;36557;53.572;10.170;2023-03-26T09:01:50;6.90;99.90
50606;DHT22;36557;53.572;10.170;2023-03-26T09:26:28;7.60;99.90
50606;DHT22;36557;53.572;10.170;2023-03-26T09:37:56;7.30;99.90
50606;DHT22;36557;53.572;10.170;2023-03-26T09:40:57;7.30;99.90
50606;DHT22;36557;53.572;10.170;2023-03-26T09:48:39;8.00;99.90
50606;DHT22;36557;53.572;10.170;2023-03-26T09:51:48;7.90;99.90
50606;DHT22;36557;53.572;10.170;2023-03-26T10:08:07;8.70;99.90
50606;DHT22;36557;53.572;10.170;2023-03-26T10:11:04;8.20;99.90
50606;DHT22;36557;53.572;10.170;2023-03-26T10:34:07;8.40;99.90
50606;DHT22;36557;53.572;10.170;2023-03-26T10:36:13;9.20;99.90
50606;DHT22;36557;53.572;10.170;2023-03-26T10:44:57;9.40;99.00
50606;DHT22;36557;53.572;10.170;2023-03-26T10:55:40;9.10;99.90
50606;DHT22;36557;53.572;10.170;2023-03-26T10:58:26;8.70;99.90
50606;DHT22;36557;53.572;10.170;2023-03-26T11:01:19;8.70;99.90
50606;DHT22;36557;53.572;10.170;2023-03-26T11:03:52;8.60;99.90
50606;DHT22;36557;53.572;10.170;2023-03-26T11:09:47;8.20;99.90
50606;DHT22;36557;53.572;10.170;2023-03-26T11:18:01;8.70;99.90
50606;DHT22;36557;53.572;10.170;2023-03-26T11:20:52;9.10;99.00
50606;DHT22;36557;53.572;10.170;2023-03-26T11:23:34;10.00;99.90
50606;DHT22;36557;53.572;10.170;2023-03-26T11:26:13;10.20;99.50
50606;DHT22;36557;53.572;10.170;2023-03-26T11:29:15;10.00;99.90
50606;DHT22;36557;53.572;10.170;2023-03-26T11:34:49;10.00;97.70
50606;DHT22;36557;53.572;10.170;2023-03-26T11:39:56;9.60;97.20
50606;DHT22;36557;53.572;10.170;2023-03-26T11:42:24;9.40;97.60
50606;DHT22;36557;53.572;10.170;2023-03-26T11:45:02;9.80;98.50
50606;DHT22;36557;53.572;10.170;2023-03-26T11:47:39;10.00;97.50
50606;DHT22;36557;53.572;10.170;2023-03-26T11:50:14;10.00;98.20
50606;DHT22;36557;53.572;10.170;2023-03-26T11:52:40;10.00;97.80
50606;DHT22;36557;53.572;10.170;2023-03-26T11:55:10;10.10;98.90
50606;DHT22;36557;53.572;10.170;2023-03-26T11:57:39;10.20;98.10
50606;DHT22;36557;53.572;10.170;2023-03-26T12:00:11;10.20;96.10
50606;DHT22;36557;53.572;10.170;2023-03-26T12:02:44;10.60;96.80
50606;DHT22;36557;53.572;10.170;2023-03-26T12:07:55;9.90;96.50
50606;DHT22;36557;53.572;10.170;2023-03-26T12:10:32;10.00;98.80
50606;DHT22;36557;53.572;10.170;2023-03-26T12:13:02;10.70;98.10
50606;DHT22;36557;53.572;10.170;2023-03-26T12:15:30;10.10;97.20
50606;DHT22;36557;53.572;10.170;2023-03-26T12:17:58;10.50;97.00
50606;DHT22;36557;53.572;10.170;2023-03-26T12:20:41;10.10;97.50
50606;DHT22;36557;53.572;10.170;2023-03-26T12:23:33;10.40;97.20
50606;DHT22;36557;53.572;10.170;2023-03-26T12:26:12;10.60;95.30
50606;DHT22;36557;53.572;10.170;2023-03-26T12:28:44;10.50;96.50
50606;DHT22;36557;53.572;10.170;2023-03-26T12:33:43;9.80;95.60
50606;DHT22;36557;53.572;10.170;2023-03-26T12:36:19;9.90;96.70
50606;DHT22;36557;53.572;10.170;2023-03-26T12:38:47;10.20;96.80
50606;DHT22;36557;53.572;10.170;2023-03-26T12:41:15;10.30;95.60
50606;DHT22;36557;53.572;10.170;2023-03-26T12:43:44;10.20;95.90
50606;DHT22;36557;53.572;10.170;2023-03-26T12:46:24;10.50;95.90
50606;DHT22;36557;53.572;10.170;2023-03-26T12:48:52;10.40;94.50
50606;DHT22;36557;53.572;10.170;2023-03-26T12:51:26;10.00;94.80
50606;DHT22;36557;53.572;10.170;2023-03-26T12:57:18;10.90;96.80
50606;DHT22;36557;53.572;10.170;2023-03-26T13:11:46;11.00;94.40
50606;DHT22;36557;53.572;10.170;2023-03-26T13:19:32;11.10;94.80
50606;DHT22;36557;53.572;10.170;2023-03-26T13:22:07;10.50;92.80
50606;DHT22;36557;53.572;10.170;2023-03-26T13:30:34;10.50;93.30
50606;DHT22;36557;53.572;10.170;2023-03-26T13:33:06;10.70;95.20
50606;DHT22;36557;53.572;10.170;2023-03-26T13:35:58;11.20;94.00
50606;DHT22;36557;53.572;10.170;2023-03-26T13:38:46;11.40;93.50
50606;DHT22;36557;53.572;10.170;2023-03-26T13:41:33;11.40;94.50
50606;DHT22;36557;53.572;10.170;2023-03-26T13:44:20;10.40;94.50
50606;DHT22;36557;53.572;10.170;2023-03-26T13:46:52;10.50;95.80
50606;DHT22;36557;53.572;10.170;2023-03-26T13:52:06;10.80;94.30
50606;DHT22;36557;53.572;10.170;2023-03-26T13:54:47;11.00;94.30
50606;DHT22;36557;53.572;10.170;2023-03-26T13:57:19;11.00;93.70
50606;DHT22;36557;53.572;10.170;2023-03-26T14:02:34;10.80;93.20
50606;DHT22;36557;53.572;10.170;2023-03-26T14:05:29;10.90;94.50
50606;DHT22;36557;53.572;10.170;2023-03-26T14:07:59;10.70;92.70
50606;DHT22;36557;53.572;10.170;2023-03-26T14:10:34;11.30;94.20
50606;DHT22;36557;53.572;10.170;2023-03-26T14:15:39;10.70;93.40
50606;DHT22;36557;53.572;10.170;2023-03-26T14:21:32;10.30;94.00
50606;DHT22;36557;53.572;10.170;2023-03-26T14:26:56;10.60;93.90
50606;DHT22;36557;53.572;10.170;2023-03-26T14:40:53;10.50;92.30
50606;DHT22;36557;53.572;10.170;2023-03-26T14:48:42;10.70;94.30
50606;DHT22;36557;53.572;10.170;2023-03-26T14:51:32;11.10;94.60
50606;DHT22;36557;53.572;10.170;2023-03-26T14:54:07;10.90;93.60
50606;DHT22;36557;53.572;10.170;2023-03-26T15:20:38;9.50;93.90
50606;DHT22;36557;53.572;10.170;2023-03-26T15:31:58;10.40;94.80
50606;DHT22;36557;53.572;10.170;2023-03-26T15:34:51;10.50;94.10
50606;DHT22;36557;53.572;10.170;2023-03-26T15:40:20;10.40;94.30
50606;DHT22;36557;53.572;10.170;2023-03-26T15:55:35;10.00;93.30
50606;DHT22;36557;53.572;10.170;2023-03-26T15:58:19;10.00;93.20
50606;DHT22;36557;53.572;10.170;2023-03-26T16:04:23;9.60;92.20
50606;DHT22;36557;53.572;10.170;2023-03-26T16:17:21;9.70;92.70
50606;DHT22;36557;53.572;10.170;2023-03-26T16:22:54;9.50;92.80
50606;DHT22;36557;53.572;10.170;2023-03-26T16:28:19;9.30;93.80
50606;DHT22;36557;53.572;10.170;2023-03-26T16:33:47;9.40;94.00
50606;DHT22;36557;53.572;10.170;2023-03-26T16:41:23;9.10;95.50
50606;DHT22;36557;53.572;10.170;2023-03-26T16:54:14;8.90;95.70
50606;DHT22;36557;53.572;10.170;2023-03-26T16:58:55;8.70;95.10
50606;DHT22;36557;53.572;10.170;2023-03-26T17:01:28;8.70;95.30
50606;DHT22;36557;53.572;10.170;2023-03-26T17:04:10;8.50;95.70
50606;DHT22;36557;53.572;10.170;2023-03-26T17:12:34;8.30;96.30
50606;DHT22;36557;53.572;10.170;2023-03-26T17:18:00;8.20;95.90
50606;DHT22;36557;53.572;10.170;2023-03-26T17:29:27;8.00;96.40
50606;DHT22;36557;53.572;10.170;2023-03-26T17:32:12;8.00;96.80
50606;DHT22;36557;53.572;10.170;2023-03-26T17:34:57;8.00;96.70
50606;DHT22;36557;53.572;10.170;2023-03-26T17:37:38;8.00;96.50
50606;DHT22;36557;53.572;10.170;2023-03-26T17:43:10;8.00;96.90
50606;DHT22;36557;53.572;10.170;2023-03-26T17:45:38;8.00;97.30
50606;DHT22;36557;53.572;10.170;2023-03-26T17:48:18;8.00;97.30
50606;DHT22;36557;53.572;10.170;2023-03-26T17:50:56;7.90;97.70
50606;DHT22;36557;53.572;10.170;2023-03-26T17:53:30;7.90;98.10
50606;DHT22;36557;53.572;10.170;2023-03-26T17:56:00;7.90;98.40
50606;DHT22;36557;53.572;10.170;2023-03-26T17:58:45;7.90;98.00
50606;DHT22;36557;53.572;10.170;2023-03-26T18:01:34;7.80;98.10
50606;DHT22;36557;53.572;10.170;2023-03-26T18:04:05;7.70;98.50
50606;DHT22;36557;53.572;10.170;2023-03-26T18:13:01;7.50;99.90
50606;DHT22;36557;53.572;10.170;2023-03-26T18:18:06;7.30;99.90
50606;DHT22;36557;53.572;10.170;2023-03-26T18:20:35;7.30;99.90
50606;DHT22;36557;53.572;10.170;2023-03-26T18:23:09;7.20;99.90
50606;DHT22;36557;53.572;10.170;2023-03-26T18:25:35;7.20;99.90
50606;DHT22;36557;53.572;10.170;2023-03-26T18:28:01;7.10;99.90
50606;DHT22;36557;53.572;10.170;2023-03-26T18:30:28;7.10;99.90
50606;DHT22;36557;53.572;10.170;2023-03-26T18:33:00;7.00;99.90
50606;DHT22;36557;53.572;10.170;2023-03-26T18:35:40;7.00;99.90
50606;DHT22;36557;53.572;10.170;2023-03-26T18:38:20;7.00;99.90
50606;DHT22;36557;53.572;10.170;2023-03-26T18:40:49;6.90;99.90
50606;DHT22;36557;53.572;10.170;2023-03-26T18:43:17;6.90;99.90
50606;DHT22;36557;53.572;10.170;2023-03-26T18:45:46;6.80;99.90
50606;DHT22;36557;53.572;10.170;2023-03-26T18:48:23;6.80;99.90
50606;DHT22;36557;53.572;10.170;2023-03-26T18:51:04;6.80;99.90
50606;DHT22;36557;53.572;10.170;2023-03-26T18:53:39;6.70;99.90
50606;DHT22;36557;53.572;10.170;2023-03-26T18:58:51;6.80;99.90
50606;DHT22;36557;53.572;10.170;2023-03-26T19:01:17;6.70;99.90
50606;DHT22;36557;53.572;10.170;2023-03-26T19:03:45;6.70;99.90
50606;DHT22;36557;53.572;10.170;2023-03-26T19:06:13;6.70;99.90
50606;DHT22;36557;53.572;10.170;2023-03-26T19:08:42;6.70;99.90
50606;DHT22;36557;53.572;10.170;2023-03-26T19:11:10;6.70;99.90
50606;DHT22;36557;53.572;10.170;2023-03-26T19:13:38;6.70;99.90
50606;DHT22;36557;53.572;10.170;2023-03-26T19:18:40;6.70;99.90
50606;DHT22;36557;53.572;10.170;2023-03-26T19:21:06;6.60;99.90
50606;DHT22;36557;53.572;10.170;2023-03-26T19:23:36;6.60;99.90
50606;DHT22;36557;53.572;10.170;2023-03-26T19:26:05;6.60;99.90
50606;DHT22;36557;53.572;10.170;2023-03-26T19:28:34;6.60;99.90
50606;DHT22;36557;53.572;10.170;2023-03-26T19:33:41;6.50;99.90
50606;DHT22;36557;53.572;10.170;2023-03-26T19:38:52;6.30;98.90
50606;DHT22;36557;53.572;10.170;2023-03-26T19:43:51;6.30;98.90
50606;DHT22;36557;53.572;10.170;2023-03-26T19:46:20;6.20;99.10
50606;DHT22;36557;53.572;10.170;2023-03-26T19:48:48;6.20;98.30
50606;DHT22;36557;53.572;10.170;2023-03-26T19:51:36;6.10;97.90
50606;DHT22;36557;53.572;10.170;2023-03-26T19:54:11;6.10;98.20
50606;DHT22;36557;53.572;10.170;2023-03-26T19:56:38;6.00;98.70
50606;DHT22;36557;53.572;10.170;2023-03-26T19:59:03;5.90;98.50
50606;DHT22;36557;53.572;10.170;2023-03-26T20:01:30;5.90;97.90
50606;DHT22;36557;53.572;10.170;2023-03-26T20:04:02;5.80;97.70
50606;DHT22;36557;53.572;10.170;2023-03-26T20:06:28;5.70;97.50
50606;DHT22;36557;53.572;10.170;2023-03-26T20:08:54;5.70;97.50
50606;DHT22;36557;53.572;10.170;2023-03-26T20:11:21;5.60;97.50
50606;DHT22;36557;53.572;10.170;2023-03-26T20:13:48;5.50;97.50
50606;DHT22;36557;53.572;10.170;2023-03-26T20:16:26;5.50;97.20
50606;DHT22;36557;53.572;10.170;2023-03-26T20:18:52;5.40;96.90
50606;DHT22;36557;53.572;10.170;2023-03-26T20:21:22;5.40;96.70
50606;DHT22;36557;53.572;10.170;2023-03-26T20:23:49;5.40;96.70
50606;DHT22;36557;53.572;10.170;2023-03-26T20:26:18;5.30;95.60
50606;DHT22;36557;53.572;10.170;2023-03-26T20:28:43;5.30;96.00
50606;DHT22;36557;53.572;10.170;2023-03-26T20:31:21;5.30;95.60
50606;DHT22;36557;53.572;10.170;2023-03-26T20:33:51;5.20;95.70
50606;DHT22;36557;53.572;10.170;2023-03-26T20:36:17;5.10;95.50
50606;DHT22;36557;53.572;10.170;2023-03-26T20:38:45;5.10;95.20
50606;DHT22;36557;53.572;10.170;2023-03-26T20:41:19;5.10;95.20
50606;DHT22;36557;53.572;10.170;2023-03-26T20:43:46;5.00;95.00
50606;DHT22;36557;53.572;10.170;2023-03-26T20:46:25;5.00;95.30
50606;DHT22;36557;53.572;10.170;2023-03-26T20:48:52;4.90;95.20
50606;DHT22;36557;53.572;10.170;2023-03-26T20:51:18;4.90;95.10
50606;DHT22;36557;53.572;10.170;2023-03-26T20:53:45;4.80;95.10
50606;DHT22;36557;53.572;10.170;2023-03-26T20:56:13;4.70;95.30
50606;DHT22;36557;53.572;10.170;2023-03-26T20:58:40;4.70;95.30
50606;DHT22;36557;53.572;10.170;2023-03-26T21:01:08;4.70;95.20
50606;DHT22;36557;53.572;10.170;2023-03-26T21:03:34;4.60;95.00
50606;DHT22;36557;53.572;10.170;2023-03-26T21:06:01;4.50;94.90
50606;DHT22;36557;53.572;10.170;2023-03-26T21:08:28;4.50;95.10
50606;DHT22;36557;53.572;10.170;2023-03-26T21:11:01;4.40;95.20
50606;DHT22;36557;53.572;10.170;2023-03-26T21:13:39;4.40;95.10
50606;DHT22;36557;53.572;10.170;2023-03-26T21:16:09;4.30;95.40
50606;DHT22;36557;53.572;10.170;2023-03-26T21:18:36;4.30;95.20
50606;DHT22;36557;53.572;10.170;2023-03-26T21:21:29;4.30;95.00
50606;DHT22;36557;53.572;10.170;2023-03-26T21:24:18;4.20;95.60
50606;DHT22;36557;53.572;10.170;2023-03-26T21:29:54;4.00;96.00
50606;DHT22;36557;53.572;10.170;2023-03-26T21:32:20;4.00;96.00
50606;DHT22;36557;53.572;10.170;2023-03-26T21:34:47;4.00;96.40
50606;DHT22;36557;53.572;10.170;2023-03-26T21:37:14;3.90;96.20
50606;DHT22;36557;53.572;10.170;2023-03-26T21:39:42;3.90;96.50
50606;DHT22;36557;53.572;10.170;2023-03-26T21:42:10;3.80;96.60
50606;DHT22;36557;53.572;10.170;2023-03-26T21:44:36;3.70;96.80
50606;DHT22;36557;53.572;10.170;2023-03-26T21:47:03;3.70;97.10
50606;DHT22;36557;53.572;10.170;2023-03-26T21:49:29;3.60;97.60
50606;DHT22;36557;53.572;10.170;2023-03-26T21:51:55;3.60;97.60
50606;DHT22;36557;53.572;10.170;2023-03-26T21:54:27;3.60;97.80
50606;DHT22;36557;53.572;10.170;2023-03-26T21:57:34;3.50;97.90